sensor_id;sensor_type;location;lat;lon;timestamp;temperature;humidity
24426;DHT22;12611;44.446;26.000;2023-06-26T00:02:06;23.20;96.60
24426;DHT22;12611;44.446;26.000;2023-06-26T00:04:34;23.20;97.00
24426;DHT22;12611;44.446;26.000;2023-06-26T00:07:04;23.20;96.60
24426;DHT22;12611;44.446;26.000;2023-06-26T00:09:32;23.20;96.60
24426;DHT22;12611;44.446;26.000;2023-06-26T00:12:01;23.20;96.50
24426;DHT22;12611;44.446;26.000;2023-06-26T00:14:29;23.20;96.40
24426;DHT22;12611;44.446;26.000;2023-06-26T00:16:58;23.20;96.40
24426;DHT22;12611;44.446;26.000;2023-06-26T00:19:28;23.20;96.40
24426;DHT22;12611;44.446;26.000;2023-06-26T00:21:56;23.20;96.40
24426;DHT22;12611;44.446;26.000;2023-06-26T00:24:24;23.20;96.40
24426;DHT22;12611;44.446;26.000;2023-06-26T00:26:53;23.20;96.30
24426;DHT22;12611;44.446;26.000;2023-06-26T00:29:21;23.30;96.30
24426;DHT22;12611;44.446;26.000;2023-06-26T00:31:49;23.20;96.30
24426;DHT22;12611;44.446;26.000;2023-06-26T00:34:18;23.30;96.30
24426;DHT22;12611;44.446;26.000;2023-06-26T00:36:47;23.30;96.30
24426;DHT22;12611;44.446;26.000;2023-06-26T00:39:16;23.30;96.40
24426;DHT22;12611;44.446;26.000;2023-06-26T00:41:44;23.30;96.30
24426;DHT22;12611;44.446;26.000;2023-06-26T00:44:13;23.30;96.40
24426;DHT22;12611;44.446;26.000;2023-06-26T00:46:41;23.30;96.50
24426;DHT22;12611;44.446;26.000;2023-06-26T00:49:10;23.30;96.50
24426;DHT22;12611;44.446;26.000;2023-06-26T00:51:38;23.30;96.50
24426;DHT22;12611;44.446;26.000;2023-06-26T00:54:08;23.30;96.60
24426;DHT22;12611;44.446;26.000;2023-06-26T00:56:37;23.30;96.50
24426;DHT22;12611;44.446;26.000;2023-06-26T00:59:05;23.30;96.50
24426;DHT22;12611;44.446;26.000;2023-06-26T01:01:33;23.30;96.50
24426;DHT22;12611;44.446;26.000;2023-06-26T01:04:02;23.30;96.40
24426;DHT22;12611;44.446;26.000;2023-06-26T01:06:32;23.30;96.50
24426;DHT22;12611;44.446;26.000;2023-06-26T01:09:02;23.30;96.40
24426;DHT22;12611;44.446;26.000;2023-06-26T01:11:32;23.30;96.50
24426;DHT22;12611;44.446;26.000;2023-06-26T01:14:01;23.20;96.50
24426;DHT22;12611;44.446;26.000;2023-06-26T01:16:30;23.20;96.50
24426;DHT22;12611;44.446;26.000;2023-06-26T01:18:59;23.20;96.60
24426;DHT22;12611;44.446;26.000;2023-06-26T01:21:28;23.20;96.60
24426;DHT22;12611;44.446;26.000;2023-06-26T01:24:07;23.20;96.60
24426;DHT22;12611;44.446;26.000;2023-06-26T01:26:40;23.20;96.70
24426;DHT22;12611;44.446;26.000;2023-06-26T01:29:10;23.20;96.70
24426;DHT22;12611;44.446;26.000;2023-06-26T01:31:39;23.20;96.60
24426;DHT22;12611;44.446;26.000;2023-06-26T01:34:08;23.20;96.70
24426;DHT22;12611;44.446;26.000;2023-06-26T01:36:36;23.20;96.70
24426;DHT22;12611;44.446;26.000;2023-06-26T01:39:05;23.20;96.70
24426;DHT22;12611;44.446;26.000;2023-06-26T01:41:35;23.20;96.70
24426;DHT22;12611;44.446;26.000;2023-06-26T01:44:15;23.20;96.70
24426;DHT22;12611;44.446;26.000;2023-06-26T01:46:54;23.20;96.70
24426;DHT22;12611;44.446;26.000;2023-06-26T01:49:31;23.10;96.70
24426;DHT22;12611;44.446;26.000;2023-06-26T01:52:07;23.20;96.80
24426;DHT22;12611;44.446;26.000;2023-06-26T01:54:39;23.10;96.70
24426;DHT22;12611;44.446;26.000;2023-06-26T01:57:11;23.10;96.80
24426;DHT22;12611;44.446;26.000;2023-06-26T01:59:42;23.10;96.70
24426;DHT22;12611;44.446;26.000;2023-06-26T02:02:11;23.10;96.70
24426;DHT22;12611;44.446;26.000;2023-06-26T02:04:40;23.20;96.70
24426;DHT22;12611;44.446;26.000;2023-06-26T02:07:09;23.20;96.60
24426;DHT22;12611;44.446;26.000;2023-06-26T02:09:37;23.20;96.60
24426;DHT22;12611;44.446;26.000;2023-06-26T02:12:06;23.20;96.60
24426;DHT22;12611;44.446;26.000;2023-06-26T02:14:34;23.20;96.60
24426;DHT22;12611;44.446;26.000;2023-06-26T02:17:04;23.20;96.60
24426;DHT22;12611;44.446;26.000;2023-06-26T02:19:33;23.20;96.50
24426;DHT22;12611;44.446;26.000;2023-06-26T02:22:02;23.20;96.50
24426;DHT22;12611;44.446;26.000;2023-06-26T02:24:30;23.20;96.40
24426;DHT22;12611;44.446;26.000;2023-06-26T02:26:59;23.20;96.40
24426;DHT22;12611;44.446;26.000;2023-06-26T02:29:27;23.20;96.80
24426;DHT22;12611;44.446;26.000;2023-06-26T02:31:56;23.20;96.40
24426;DHT22;12611;44.446;26.000;2023-06-26T02:34:25;23.20;96.50
24426;DHT22;12611;44.446;26.000;2023-06-26T02:36:54;23.20;96.40
24426;DHT22;12611;44.446;26.000;2023-06-26T02:39:22;23.20;96.40
24426;DHT22;12611;44.446;26.000;2023-06-26T02:41:51;23.20;96.40
24426;DHT22;12611;44.446;26.000;2023-06-26T02:44:19;23.20;96.40
24426;DHT22;12611;44.446;26.000;2023-06-26T02:46:48;23.20;96.40
24426;DHT22;12611;44.446;26.000;2023-06-26T02:49:16;23.20;96.40
24426;DHT22;12611;44.446;26.000;2023-06-26T02:51:50;23.20;96.50
24426;DHT22;12611;44.446;26.000;2023-06-26T02:54:18;23.10;96.40
24426;DHT22;12611;44.446;26.000;2023-06-26T02:56:46;23.10;96.40
24426;DHT22;12611;44.446;26.000;2023-06-26T02:59:18;23.10;96.40
24426;DHT22;12611;44.446;26.000;2023-06-26T03:01:46;23.10;96.40
24426;DHT22;12611;44.446;26.000;2023-06-26T03:04:15;23.10;96.40
24426;DHT22;12611;44.446;26.000;2023-06-26T03:06:45;23.20;96.40
24426;DHT22;12611;44.446;26.000;2023-06-26T03:09:15;23.20;96.40
24426;DHT22;12611;44.446;26.000;2023-06-26T03:11:44;23.20;96.40
24426;DHT22;12611;44.446;26.000;2023-06-26T03:14:12;23.20;96.40
24426;DHT22;12611;44.446;26.000;2023-06-26T03:16:41;23.20;96.40
24426;DHT22;12611;44.446;26.000;2023-06-26T03:19:09;23.20;96.40
24426;DHT22;12611;44.446;26.000;2023-06-26T03:21:37;23.20;96.40
24426;DHT22;12611;44.446;26.000;2023-06-26T03:24:06;23.20;96.40
24426;DHT22;12611;44.446;26.000;2023-06-26T03:26:36;23.20;96.40
24426;DHT22;12611;44.446;26.000;2023-06-26T03:29:04;23.20;96.40
24426;DHT22;12611;44.446;26.000;2023-06-26T03:31:32;23.20;96.40
24426;DHT22;12611;44.446;26.000;2023-06-26T03:34:01;23.20;96.40
24426;DHT22;12611;44.446;26.000;2023-06-26T03:36:30;23.30;96.40
24426;DHT22;12611;44.446;26.000;2023-06-26T03:38:59;23.30;96.40
24426;DHT22;12611;44.446;26.000;2023-06-26T03:41:27;23.30;96.40
24426;DHT22;12611;44.446;26.000;2023-06-26T03:43:57;23.30;96.40
24426;DHT22;12611;44.446;26.000;2023-06-26T03:46:27;23.30;96.30
24426;DHT22;12611;44.446;26.000;2023-06-26T03:48:55;23.30;96.30
24426;DHT22;12611;44.446;26.000;2023-06-26T03:51:23;23.30;96.30
24426;DHT22;12611;44.446;26.000;2023-06-26T03:53:52;23.30;96.30
24426;DHT22;12611;44.446;26.000;2023-06-26T03:56:20;23.30;96.30
24426;DHT22;12611;44.446;26.000;2023-06-26T03:58:49;23.30;96.30
24426;DHT22;12611;44.446;26.000;2023-06-26T04:01:18;23.30;96.30
24426;DHT22;12611;44.446;26.000;2023-06-26T04:03:48;23.30;96.30
24426;DHT22;12611;44.446;26.000;2023-06-26T04:06:17;23.30;96.30
24426;DHT22;12611;44.446;26.000;2023-06-26T04:08:45;23.30;96.30
24426;DHT22;12611;44.446;26.000;2023-06-26T04:11:14;23.30;96.30
24426;DHT22;12611;44.446;26.000;2023-06-26T04:13:43;23.40;96.30
24426;DHT22;12611;44.446;26.000;2023-06-26T04:16:11;23.40;96.30
24426;DHT22;12611;44.446;26.000;2023-06-26T04:18:41;23.40;96.30
24426;DHT22;12611;44.446;26.000;2023-06-26T04:21:11;23.40;96.30
24426;DHT22;12611;44.446;26.000;2023-06-26T04:23:40;23.50;96.30
24426;DHT22;12611;44.446;26.000;2023-06-26T04:26:09;23.50;96.30
24426;DHT22;12611;44.446;26.000;2023-06-26T04:28:41;23.50;96.40
24426;DHT22;12611;44.446;26.000;2023-06-26T04:31:10;23.50;96.30
24426;DHT22;12611;44.446;26.000;2023-06-26T04:33:38;23.50;96.30
24426;DHT22;12611;44.446;26.000;2023-06-26T04:36:10;23.60;96.30
24426;DHT22;12611;44.446;26.000;2023-06-26T04:38:39;23.60;96.30
24426;DHT22;12611;44.446;26.000;2023-06-26T04:41:07;23.60;96.50
24426;DHT22;12611;44.446;26.000;2023-06-26T04:43:36;23.60;96.50
24426;DHT22;12611;44.446;26.000;2023-06-26T04:46:04;23.60;96.40
24426;DHT22;12611;44.446;26.000;2023-06-26T04:48:33;23.70;96.40
24426;DHT22;12611;44.446;26.000;2023-06-26T04:51:01;23.70;96.40
24426;DHT22;12611;44.446;26.000;2023-06-26T04:53:31;23.80;96.40
24426;DHT22;12611;44.446;26.000;2023-06-26T04:55:59;23.70;96.40
24426;DHT22;12611;44.446;26.000;2023-06-26T04:58:28;23.80;96.50
24426;DHT22;12611;44.446;26.000;2023-06-26T05:00:56;23.80;96.50
24426;DHT22;12611;44.446;26.000;2023-06-26T05:03:25;23.80;96.40
24426;DHT22;12611;44.446;26.000;2023-06-26T05:05:54;23.80;96.70
24426;DHT22;12611;44.446;26.000;2023-06-26T05:08:24;23.80;96.30
24426;DHT22;12611;44.446;26.000;2023-06-26T05:10:56;23.90;96.30
24426;DHT22;12611;44.446;26.000;2023-06-26T05:13:25;23.90;96.20
24426;DHT22;12611;44.446;26.000;2023-06-26T05:15:54;24.00;96.10
24426;DHT22;12611;44.446;26.000;2023-06-26T05:18:22;24.00;96.10
24426;DHT22;12611;44.446;26.000;2023-06-26T05:20:51;24.00;96.10
24426;DHT22;12611;44.446;26.000;2023-06-26T05:23:19;24.10;96.10
24426;DHT22;12611;44.446;26.000;2023-06-26T05:25:48;24.10;96.10
24426;DHT22;12611;44.446;26.000;2023-06-26T05:28:19;24.10;96.10
24426;DHT22;12611;44.446;26.000;2023-06-26T05:30:48;24.10;96.00
24426;DHT22;12611;44.446;26.000;2023-06-26T05:33:18;24.10;96.00
24426;DHT22;12611;44.446;26.000;2023-06-26T05:35:48;24.10;96.00
24426;DHT22;12611;44.446;26.000;2023-06-26T05:38:17;24.10;95.90
24426;DHT22;12611;44.446;26.000;2023-06-26T05:40:46;24.20;96.00
24426;DHT22;12611;44.446;26.000;2023-06-26T05:43:15;24.20;96.00
24426;DHT22;12611;44.446;26.000;2023-06-26T05:45:44;24.20;96.00
24426;DHT22;12611;44.446;26.000;2023-06-26T05:48:13;24.30;96.10
24426;DHT22;12611;44.446;26.000;2023-06-26T05:50:42;24.30;96.00
24426;DHT22;12611;44.446;26.000;2023-06-26T05:53:12;24.30;95.90
24426;DHT22;12611;44.446;26.000;2023-06-26T05:55:41;24.40;95.90
24426;DHT22;12611;44.446;26.000;2023-06-26T05:58:11;24.50;95.80
24426;DHT22;12611;44.446;26.000;2023-06-26T06:00:40;24.50;95.80
24426;DHT22;12611;44.446;26.000;2023-06-26T06:03:10;24.50;95.80
24426;DHT22;12611;44.446;26.000;2023-06-26T06:05:39;24.50;95.90
24426;DHT22;12611;44.446;26.000;2023-06-26T06:08:07;24.50;95.90
24426;DHT22;12611;44.446;26.000;2023-06-26T06:10:36;24.60;95.90
24426;DHT22;12611;44.446;26.000;2023-06-26T06:13:05;24.70;96.00
24426;DHT22;12611;44.446;26.000;2023-06-26T06:15:33;24.70;95.90
24426;DHT22;12611;44.446;26.000;2023-06-26T06:18:01;24.80;96.00
24426;DHT22;12611;44.446;26.000;2023-06-26T06:20:32;24.80;96.00
24426;DHT22;12611;44.446;26.000;2023-06-26T06:23:00;24.80;96.00
24426;DHT22;12611;44.446;26.000;2023-06-26T06:25:29;24.80;96.00
24426;DHT22;12611;44.446;26.000;2023-06-26T06:27:57;24.80;96.00
24426;DHT22;12611;44.446;26.000;2023-06-26T06:30:25;24.90;96.00
24426;DHT22;12611;44.446;26.000;2023-06-26T06:33:11;24.90;95.80
24426;DHT22;12611;44.446;26.000;2023-06-26T06:35:41;25.00;95.70
24426;DHT22;12611;44.446;26.000;2023-06-26T06:38:09;25.00;95.70
24426;DHT22;12611;44.446;26.000;2023-06-26T06:40:38;25.00;95.50
24426;DHT22;12611;44.446;26.000;2023-06-26T06:43:06;25.00;95.50
24426;DHT22;12611;44.446;26.000;2023-06-26T06:45:35;25.10;95.40
24426;DHT22;12611;44.446;26.000;2023-06-26T06:48:04;25.10;95.20
24426;DHT22;12611;44.446;26.000;2023-06-26T06:50:33;25.10;95.00
24426;DHT22;12611;44.446;26.000;2023-06-26T06:53:03;25.20;94.90
24426;DHT22;12611;44.446;26.000;2023-06-26T06:55:31;25.20;94.80
24426;DHT22;12611;44.446;26.000;2023-06-26T06:58:00;25.20;94.70
24426;DHT22;12611;44.446;26.000;2023-06-26T07:00:32;25.20;94.60
24426;DHT22;12611;44.446;26.000;2023-06-26T07:03:00;25.30;94.50
24426;DHT22;12611;44.446;26.000;2023-06-26T07:05:28;25.30;94.50
24426;DHT22;12611;44.446;26.000;2023-06-26T07:07:57;25.40;94.50
24426;DHT22;12611;44.446;26.000;2023-06-26T07:10:30;25.40;94.40
24426;DHT22;12611;44.446;26.000;2023-06-26T07:12:59;25.40;94.40
24426;DHT22;12611;44.446;26.000;2023-06-26T07:15:27;25.40;94.00
24426;DHT22;12611;44.446;26.000;2023-06-26T07:17:56;25.50;93.80
24426;DHT22;12611;44.446;26.000;2023-06-26T07:20:24;25.50;93.70
24426;DHT22;12611;44.446;26.000;2023-06-26T07:22:53;25.50;93.60
24426;DHT22;12611;44.446;26.000;2023-06-26T07:25:21;25.60;93.60
24426;DHT22;12611;44.446;26.000;2023-06-26T07:27:51;25.60;93.60
24426;DHT22;12611;44.446;26.000;2023-06-26T07:30:19;25.60;93.50
24426;DHT22;12611;44.446;26.000;2023-06-26T07:32:47;25.70;93.50
24426;DHT22;12611;44.446;26.000;2023-06-26T07:35:16;25.70;93.10
24426;DHT22;12611;44.446;26.000;2023-06-26T07:37:45;25.70;93.00
24426;DHT22;12611;44.446;26.000;2023-06-26T07:40:13;25.80;93.00
24426;DHT22;12611;44.446;26.000;2023-06-26T07:42:44;25.80;92.90
24426;DHT22;12611;44.446;26.000;2023-06-26T07:45:15;25.90;92.90
24426;DHT22;12611;44.446;26.000;2023-06-26T07:47:43;26.00;92.70
24426;DHT22;12611;44.446;26.000;2023-06-26T07:50:11;26.00;92.50
24426;DHT22;12611;44.446;26.000;2023-06-26T07:52:42;26.10;92.50
24426;DHT22;12611;44.446;26.000;2023-06-26T07:55:11;26.20;92.00
24426;DHT22;12611;44.446;26.000;2023-06-26T07:57:39;26.20;91.70
24426;DHT22;12611;44.446;26.000;2023-06-26T08:00:08;26.30;91.90
24426;DHT22;12611;44.446;26.000;2023-06-26T08:02:38;26.40;91.70
24426;DHT22;12611;44.446;26.000;2023-06-26T08:05:07;26.40;91.20
24426;DHT22;12611;44.446;26.000;2023-06-26T08:07:35;26.50;91.30
24426;DHT22;12611;44.446;26.000;2023-06-26T08:10:04;26.50;91.40
24426;DHT22;12611;44.446;26.000;2023-06-26T08:12:34;26.50;91.40
24426;DHT22;12611;44.446;26.000;2023-06-26T08:15:04;26.60;91.20
24426;DHT22;12611;44.446;26.000;2023-06-26T08:17:34;26.60;91.00
24426;DHT22;12611;44.446;26.000;2023-06-26T08:20:05;26.70;90.80
24426;DHT22;12611;44.446;26.000;2023-06-26T08:22:35;26.80;90.50
24426;DHT22;12611;44.446;26.000;2023-06-26T08:25:04;26.80;90.70
24426;DHT22;12611;44.446;26.000;2023-06-26T08:27:33;26.80;90.20
24426;DHT22;12611;44.446;26.000;2023-06-26T08:30:01;26.90;90.00
24426;DHT22;12611;44.446;26.000;2023-06-26T08:32:31;26.90;90.10
24426;DHT22;12611;44.446;26.000;2023-06-26T08:35:00;27.00;90.10
24426;DHT22;12611;44.446;26.000;2023-06-26T08:37:30;27.00;89.40
24426;DHT22;12611;44.446;26.000;2023-06-26T08:40:00;27.00;88.70
24426;DHT22;12611;44.446;26.000;2023-06-26T08:42:28;27.10;89.00
24426;DHT22;12611;44.446;26.000;2023-06-26T08:44:57;27.10;88.80
24426;DHT22;12611;44.446;26.000;2023-06-26T08:47:30;27.20;89.20
24426;DHT22;12611;44.446;26.000;2023-06-26T08:50:05;27.30;89.40
24426;DHT22;12611;44.446;26.000;2023-06-26T08:52:40;27.30;87.90
24426;DHT22;12611;44.446;26.000;2023-06-26T08:55:12;27.40;88.30
24426;DHT22;12611;44.446;26.000;2023-06-26T08:57:43;27.50;88.00
24426;DHT22;12611;44.446;26.000;2023-06-26T09:00:15;27.40;86.70
24426;DHT22;12611;44.446;26.000;2023-06-26T09:02:44;27.40;85.60
24426;DHT22;12611;44.446;26.000;2023-06-26T09:05:13;27.50;85.70
24426;DHT22;12611;44.446;26.000;2023-06-26T09:07:43;27.50;85.40
24426;DHT22;12611;44.446;26.000;2023-06-26T09:10:12;27.60;85.00
24426;DHT22;12611;44.446;26.000;2023-06-26T09:12:40;27.70;85.50
24426;DHT22;12611;44.446;26.000;2023-06-26T09:15:09;27.70;85.80
24426;DHT22;12611;44.446;26.000;2023-06-26T09:17:39;27.70;84.10
24426;DHT22;12611;44.446;26.000;2023-06-26T09:20:09;27.60;84.30
24426;DHT22;12611;44.446;26.000;2023-06-26T09:22:42;27.60;84.60
24426;DHT22;12611;44.446;26.000;2023-06-26T09:25:11;27.50;85.00
24426;DHT22;12611;44.446;26.000;2023-06-26T09:27:40;27.60;85.40
24426;DHT22;12611;44.446;26.000;2023-06-26T09:30:11;27.60;85.10
24426;DHT22;12611;44.446;26.000;2023-06-26T09:32:39;27.70;85.00
24426;DHT22;12611;44.446;26.000;2023-06-26T09:35:08;27.80;84.80
24426;DHT22;12611;44.446;26.000;2023-06-26T09:37:38;27.70;84.10
24426;DHT22;12611;44.446;26.000;2023-06-26T09:40:09;27.80;84.30
24426;DHT22;12611;44.446;26.000;2023-06-26T09:42:37;27.90;83.90
24426;DHT22;12611;44.446;26.000;2023-06-26T09:45:06;28.00;83.80
24426;DHT22;12611;44.446;26.000;2023-06-26T09:47:35;28.00;84.10
24426;DHT22;12611;44.446;26.000;2023-06-26T09:50:03;28.00;83.30
24426;DHT22;12611;44.446;26.000;2023-06-26T09:52:33;28.00;82.60
24426;DHT22;12611;44.446;26.000;2023-06-26T09:55:09;28.10;82.30
24426;DHT22;12611;44.446;26.000;2023-06-26T09:57:38;28.10;82.40
24426;DHT22;12611;44.446;26.000;2023-06-26T10:00:08;28.10;81.90
24426;DHT22;12611;44.446;26.000;2023-06-26T10:02:37;28.20;81.90
24426;DHT22;12611;44.446;26.000;2023-06-26T10:05:06;28.10;81.00
24426;DHT22;12611;44.446;26.000;2023-06-26T10:07:35;28.20;80.30
24426;DHT22;12611;44.446;26.000;2023-06-26T10:10:06;28.30;80.90
24426;DHT22;12611;44.446;26.000;2023-06-26T10:12:36;28.40;80.70
24426;DHT22;12611;44.446;26.000;2023-06-26T10:15:06;28.40;80.30
24426;DHT22;12611;44.446;26.000;2023-06-26T10:17:42;28.60;80.30
24426;DHT22;12611;44.446;26.000;2023-06-26T10:20:14;28.60;79.20
24426;DHT22;12611;44.446;26.000;2023-06-26T10:22:46;28.60;75.70
24426;DHT22;12611;44.446;26.000;2023-06-26T10:25:18;28.60;75.00
24426;DHT22;12611;44.446;26.000;2023-06-26T10:27:54;28.70;74.60
24426;DHT22;12611;44.446;26.000;2023-06-26T10:30:26;28.70;72.70
24426;DHT22;12611;44.446;26.000;2023-06-26T10:32:56;28.70;72.80
24426;DHT22;12611;44.446;26.000;2023-06-26T10:35:25;28.70;72.90
24426;DHT22;12611;44.446;26.000;2023-06-26T10:38:00;28.70;73.10
24426;DHT22;12611;44.446;26.000;2023-06-26T10:40:40;28.90;74.30
24426;DHT22;12611;44.446;26.000;2023-06-26T10:43:12;28.80;73.90
24426;DHT22;12611;44.446;26.000;2023-06-26T10:45:44;28.90;73.90
24426;DHT22;12611;44.446;26.000;2023-06-26T10:48:15;28.90;71.90
24426;DHT22;12611;44.446;26.000;2023-06-26T10:50:47;28.90;71.10
24426;DHT22;12611;44.446;26.000;2023-06-26T10:53:22;29.00;70.90
24426;DHT22;12611;44.446;26.000;2023-06-26T10:55:56;29.10;69.50
24426;DHT22;12611;44.446;26.000;2023-06-26T10:58:30;29.10;69.00
24426;DHT22;12611;44.446;26.000;2023-06-26T11:01:17;29.20;69.60
24426;DHT22;12611;44.446;26.000;2023-06-26T11:03:48;29.30;69.10
24426;DHT22;12611;44.446;26.000;2023-06-26T11:06:18;29.30;68.60
24426;DHT22;12611;44.446;26.000;2023-06-26T11:08:48;29.40;66.90
24426;DHT22;12611;44.446;26.000;2023-06-26T11:11:17;29.40;66.40
24426;DHT22;12611;44.446;26.000;2023-06-26T11:13:47;29.50;65.50
24426;DHT22;12611;44.446;26.000;2023-06-26T11:16:16;29.60;66.70
24426;DHT22;12611;44.446;26.000;2023-06-26T11:18:45;29.60;66.60
24426;DHT22;12611;44.446;26.000;2023-06-26T11:21:13;29.80;66.40
24426;DHT22;12611;44.446;26.000;2023-06-26T11:23:43;29.80;66.60
24426;DHT22;12611;44.446;26.000;2023-06-26T11:26:15;29.80;64.40
24426;DHT22;12611;44.446;26.000;2023-06-26T11:28:48;29.90;64.70
24426;DHT22;12611;44.446;26.000;2023-06-26T11:31:26;30.10;63.70
24426;DHT22;12611;44.446;26.000;2023-06-26T11:33:58;30.20;63.70
24426;DHT22;12611;44.446;26.000;2023-06-26T11:36:27;30.20;63.20
24426;DHT22;12611;44.446;26.000;2023-06-26T11:38:56;30.10;62.70
24426;DHT22;12611;44.446;26.000;2023-06-26T11:41:27;30.10;62.70
24426;DHT22;12611;44.446;26.000;2023-06-26T11:44:00;30.10;63.40
24426;DHT22;12611;44.446;26.000;2023-06-26T11:46:31;30.10;63.60
24426;DHT22;12611;44.446;26.000;2023-06-26T11:49:02;30.10;63.40
24426;DHT22;12611;44.446;26.000;2023-06-26T11:51:31;30.20;62.20
24426;DHT22;12611;44.446;26.000;2023-06-26T11:54:01;30.20;61.30
24426;DHT22;12611;44.446;26.000;2023-06-26T11:56:31;30.20;61.50
24426;DHT22;12611;44.446;26.000;2023-06-26T11:59:02;30.20;60.60
24426;DHT22;12611;44.446;26.000;2023-06-26T12:01:36;30.10;60.30
24426;DHT22;12611;44.446;26.000;2023-06-26T12:04:07;30.10;60.90
24426;DHT22;12611;44.446;26.000;2023-06-26T12:06:36;30.00;59.40
24426;DHT22;12611;44.446;26.000;2023-06-26T12:09:08;29.90;58.80
24426;DHT22;12611;44.446;26.000;2023-06-26T12:11:38;29.90;59.50
24426;DHT22;12611;44.446;26.000;2023-06-26T12:14:10;29.90;60.30
24426;DHT22;12611;44.446;26.000;2023-06-26T12:16:41;29.90;60.00
24426;DHT22;12611;44.446;26.000;2023-06-26T12:19:10;29.90;60.20
24426;DHT22;12611;44.446;26.000;2023-06-26T12:21:48;29.90;60.00
24426;DHT22;12611;44.446;26.000;2023-06-26T12:24:20;29.90;60.40
24426;DHT22;12611;44.446;26.000;2023-06-26T12:26:50;29.90;60.40
24426;DHT22;12611;44.446;26.000;2023-06-26T12:29:24;30.00;60.20
24426;DHT22;12611;44.446;26.000;2023-06-26T12:31:56;30.10;60.30
24426;DHT22;12611;44.446;26.000;2023-06-26T12:34:27;30.20;60.50
24426;DHT22;12611;44.446;26.000;2023-06-26T12:37:00;30.20;58.00
24426;DHT22;12611;44.446;26.000;2023-06-26T12:39:30;30.30;58.40
24426;DHT22;12611;44.446;26.000;2023-06-26T12:42:14;30.40;59.50
24426;DHT22;12611;44.446;26.000;2023-06-26T12:44:44;30.60;59.30
24426;DHT22;12611;44.446;26.000;2023-06-26T12:47:13;30.70;59.70
24426;DHT22;12611;44.446;26.000;2023-06-26T12:49:43;30.90;58.50
24426;DHT22;12611;44.446;26.000;2023-06-26T12:52:13;31.10;59.20
24426;DHT22;12611;44.446;26.000;2023-06-26T12:54:42;31.40;59.90
24426;DHT22;12611;44.446;26.000;2023-06-26T12:57:11;31.60;60.00
24426;DHT22;12611;44.446;26.000;2023-06-26T12:59:41;31.80;60.10
24426;DHT22;12611;44.446;26.000;2023-06-26T13:02:11;31.90;60.10
24426;DHT22;12611;44.446;26.000;2023-06-26T13:04:41;32.00;58.70
24426;DHT22;12611;44.446;26.000;2023-06-26T13:07:11;32.10;58.50
24426;DHT22;12611;44.446;26.000;2023-06-26T13:09:40;32.20;58.60
24426;DHT22;12611;44.446;26.000;2023-06-26T13:12:09;32.20;57.40
24426;DHT22;12611;44.446;26.000;2023-06-26T13:14:37;32.20;57.40
24426;DHT22;12611;44.446;26.000;2023-06-26T13:17:06;32.10;57.10
24426;DHT22;12611;44.446;26.000;2023-06-26T13:19:37;32.00;57.30
24426;DHT22;12611;44.446;26.000;2023-06-26T13:22:06;31.80;60.50
24426;DHT22;12611;44.446;26.000;2023-06-26T13:24:34;31.70;60.90
24426;DHT22;12611;44.446;26.000;2023-06-26T13:27:03;31.60;61.70
24426;DHT22;12611;44.446;26.000;2023-06-26T13:29:35;31.40;62.90
24426;DHT22;12611;44.446;26.000;2023-06-26T13:32:04;31.30;63.40
24426;DHT22;12611;44.446;26.000;2023-06-26T13:34:33;31.10;63.60
24426;DHT22;12611;44.446;26.000;2023-06-26T13:37:03;31.00;64.20
24426;DHT22;12611;44.446;26.000;2023-06-26T13:39:33;31.00;64.90
24426;DHT22;12611;44.446;26.000;2023-06-26T13:42:01;30.90;65.40
24426;DHT22;12611;44.446;26.000;2023-06-26T13:44:30;30.70;66.00
24426;DHT22;12611;44.446;26.000;2023-06-26T13:47:14;30.70;65.90
24426;DHT22;12611;44.446;26.000;2023-06-26T13:49:42;30.60;66.70
24426;DHT22;12611;44.446;26.000;2023-06-26T13:52:12;30.30;67.00
24426;DHT22;12611;44.446;26.000;2023-06-26T13:54:40;30.30;67.80
24426;DHT22;12611;44.446;26.000;2023-06-26T13:57:09;30.20;68.00
24426;DHT22;12611;44.446;26.000;2023-06-26T13:59:38;30.00;68.10
24426;DHT22;12611;44.446;26.000;2023-06-26T14:02:07;29.90;68.60
24426;DHT22;12611;44.446;26.000;2023-06-26T14:04:36;29.80;69.00
24426;DHT22;12611;44.446;26.000;2023-06-26T14:07:05;29.70;69.20
24426;DHT22;12611;44.446;26.000;2023-06-26T14:09:35;29.70;69.30
24426;DHT22;12611;44.446;26.000;2023-06-26T14:12:05;29.60;69.30
24426;DHT22;12611;44.446;26.000;2023-06-26T14:14:33;29.50;69.40
24426;DHT22;12611;44.446;26.000;2023-06-26T14:17:02;29.50;69.60
24426;DHT22;12611;44.446;26.000;2023-06-26T14:19:33;29.40;69.80
24426;DHT22;12611;44.446;26.000;2023-06-26T14:22:01;29.30;70.00
24426;DHT22;12611;44.446;26.000;2023-06-26T14:24:30;29.20;70.00
24426;DHT22;12611;44.446;26.000;2023-06-26T14:27:00;29.10;70.20
24426;DHT22;12611;44.446;26.000;2023-06-26T14:29:29;29.10;70.80
24426;DHT22;12611;44.446;26.000;2023-06-26T14:31:58;29.00;71.10
24426;DHT22;12611;44.446;26.000;2023-06-26T14:34:26;29.00;71.20
24426;DHT22;12611;44.446;26.000;2023-06-26T14:36:55;28.90;71.40
24426;DHT22;12611;44.446;26.000;2023-06-26T14:39:23;28.90;71.60
24426;DHT22;12611;44.446;26.000;2023-06-26T14:41:52;28.90;72.00
24426;DHT22;12611;44.446;26.000;2023-06-26T14:44:22;28.80;72.20
24426;DHT22;12611;44.446;26.000;2023-06-26T14:46:51;28.80;72.30
24426;DHT22;12611;44.446;26.000;2023-06-26T14:49:20;28.80;72.30
24426;DHT22;12611;44.446;26.000;2023-06-26T14:51:48;28.70;72.30
24426;DHT22;12611;44.446;26.000;2023-06-26T14:54:16;28.70;72.40
24426;DHT22;12611;44.446;26.000;2023-06-26T14:56:44;28.70;72.50
24426;DHT22;12611;44.446;26.000;2023-06-26T14:59:14;28.60;73.30
24426;DHT22;12611;44.446;26.000;2023-06-26T15:01:44;28.60;72.70
24426;DHT22;12611;44.446;26.000;2023-06-26T15:04:12;28.60;72.90
24426;DHT22;12611;44.446;26.000;2023-06-26T15:06:43;28.60;73.20
24426;DHT22;12611;44.446;26.000;2023-06-26T15:09:12;28.50;74.30
24426;DHT22;12611;44.446;26.000;2023-06-26T15:11:41;28.50;73.60
24426;DHT22;12611;44.446;26.000;2023-06-26T15:14:09;28.50;73.80
24426;DHT22;12611;44.446;26.000;2023-06-26T15:16:38;28.50;74.20
24426;DHT22;12611;44.446;26.000;2023-06-26T15:19:08;28.40;74.80
24426;DHT22;12611;44.446;26.000;2023-06-26T15:21:37;28.40;75.40
24426;DHT22;12611;44.446;26.000;2023-06-26T15:24:09;28.30;75.80
24426;DHT22;12611;44.446;26.000;2023-06-26T15:26:37;28.30;75.70
24426;DHT22;12611;44.446;26.000;2023-06-26T15:29:05;28.30;75.70
24426;DHT22;12611;44.446;26.000;2023-06-26T15:31:34;28.20;75.90